createdAt,value
2019-01-24T00:01:46.444Z,-2.56
2019-01-24T00:04:17.201Z,-2.57
2019-01-24T00:06:47.978Z,-2.62
2019-01-24T00:09:18.738Z,-2.69
2019-01-24T00:11:49.507Z,-2.75
2019-01-24T00:14:20.335Z,-2.81
2019-01-24T00:16:51.148Z,-2.68
2019-01-24T00:19:21.917Z,-2.64
2019-01-24T00:21:52.685Z,-2.70
2019-01-24T00:24:23.446Z,-2.71
2019-01-24T00:26:54.208Z,-2.60
2019-01-24T00:29:24.964Z,-2.67
2019-01-24T00:31:55.768Z,-2.70
2019-01-24T00:34:26.521Z,-2.68
2019-01-24T00:36:57.283Z,-2.77
2019-01-24T00:39:28.063Z,-2.76
2019-01-24T00:41:58.821Z,-2.76
2019-01-24T00:44:29.704Z,-2.74
2019-01-24T00:47:00.579Z,-2.80
2019-01-24T00:49:31.372Z,-2.88
2019-01-24T00:52:02.645Z,-2.80
2019-01-24T00:54:33.401Z,-2.80
2019-01-24T00:57:04.165Z,-2.74
2019-01-24T00:59:34.935Z,-2.72
2019-01-24T01:02:05.691Z,-2.74
2019-01-24T01:04:36.463Z,-2.79
2019-01-24T01:07:07.220Z,-2.84
2019-01-24T01:09:37.981Z,-2.82
2019-01-24T01:12:08.755Z,-2.83
2019-01-24T01:14:39.552Z,-2.89
2019-01-24T01:17:10.407Z,-2.97
2019-01-24T01:19:41.183Z,-3.01
2019-01-24T01:22:11.942Z,-2.88
2019-01-24T01:24:42.715Z,-2.74
2019-01-24T01:27:13.469Z,-2.76
2019-01-24T01:29:44.248Z,-2.71
2019-01-24T01:32:15.011Z,-2.78
2019-01-24T01:34:45.779Z,-2.77
2019-01-24T01:37:16.557Z,-2.80
2019-01-24T01:39:47.328Z,-2.76
2019-01-24T01:42:18.081Z,-2.81
2019-01-24T01:44:48.852Z,-2.71
2019-01-24T01:47:19.609Z,-2.75
2019-01-24T01:49:50.376Z,-2.66
2019-01-24T01:52:21.135Z,-2.70
2019-01-24T01:54:51.920Z,-2.70
2019-01-24T01:57:22.680Z,-2.68
2019-01-24T01:59:53.474Z,-2.75
2019-01-24T02:02:24.232Z,-2.72
2019-01-24T02:04:54.981Z,-2.76
2019-01-24T02:07:25.752Z,-2.78
2019-01-24T02:09:56.513Z,-2.80
2019-01-24T02:12:27.275Z,-2.85
2019-01-24T02:14:58.130Z,-2.78
2019-01-24T02:17:28.908Z,-2.70
2019-01-24T02:19:59.661Z,-2.81
2019-01-24T02:22:30.442Z,-2.78
2019-01-24T02:25:01.204Z,-2.70
2019-01-24T02:27:31.975Z,-2.76
2019-01-24T02:30:12.661Z,-2.81
2019-01-24T02:32:43.435Z,-2.64
2019-01-24T02:35:14.186Z,-2.62
2019-01-24T02:37:45.062Z,-2.69
2019-01-24T02:40:15.944Z,-2.64
2019-01-24T02:42:46.831Z,-2.68
2019-01-24T02:45:20.100Z,-2.69
2019-01-24T02:47:51.184Z,-2.71
2019-01-24T02:50:22.249Z,-2.59
2019-01-24T02:52:53.018Z,-2.62
2019-01-24T02:55:23.782Z,-2.70
2019-01-24T02:57:54.546Z,-2.67
2019-01-24T03:00:25.312Z,-2.71
2019-01-24T03:02:56.075Z,-2.67
2019-01-24T03:05:26.835Z,-2.67
2019-01-24T03:07:57.605Z,-2.70
2019-01-24T03:10:28.358Z,-2.76
2019-01-24T03:12:59.122Z,-2.78
2019-01-24T03:15:29.880Z,-2.79
2019-01-24T03:18:00.662Z,-2.81
2019-01-24T03:20:31.430Z,-2.69
2019-01-24T03:23:02.304Z,-2.73
2019-01-24T03:25:33.068Z,-2.82
2019-01-24T03:28:03.839Z,-2.84
2019-01-24T03:30:34.923Z,-2.87
2019-01-24T03:33:05.703Z,-2.91
2019-01-24T03:35:36.461Z,-2.88
2019-01-24T03:38:07.231Z,-2.86
2019-01-24T03:40:37.989Z,-2.77
2019-01-24T03:43:08.781Z,-2.84
2019-01-24T03:45:39.552Z,-2.85
2019-01-24T03:48:10.321Z,-3.32
2019-01-24T03:50:41.090Z,-2.98
2019-01-24T03:53:11.861Z,-3.00
2019-01-24T03:55:42.710Z,-2.89
2019-01-24T03:58:13.487Z,-2.84
2019-01-24T04:00:44.350Z,-2.92
2019-01-24T04:03:15.119Z,-2.95
2019-01-24T04:05:45.881Z,-2.87
2019-01-24T04:08:16.653Z,-2.83
2019-01-24T04:10:47.415Z,-2.80
2019-01-24T04:13:18.184Z,-2.70
2019-01-24T04:15:48.939Z,-2.78
2019-01-24T04:18:19.710Z,-2.70
2019-01-24T04:20:50.467Z,-2.84
2019-01-24T04:23:21.233Z,-2.93
2019-01-24T04:25:51.991Z,-2.84
2019-01-24T04:28:22.775Z,-2.86
2019-01-24T04:30:53.534Z,-2.90
2019-01-24T04:33:24.294Z,-2.90
2019-01-24T04:35:55.065Z,-2.81
2019-01-24T04:38:25.829Z,-2.83
2019-01-24T04:40:56.577Z,-2.84
2019-01-24T04:43:27.368Z,-2.85
2019-01-24T04:45:58.135Z,-2.90
2019-01-24T04:48:28.901Z,-2.93
2019-01-24T04:50:59.700Z,-2.92
2019-01-24T04:53:30.471Z,-2.96
2019-01-24T04:56:01.224Z,-2.79
2019-01-24T04:58:31.983Z,-2.84
2019-01-24T05:01:02.849Z,-2.88
2019-01-24T05:03:33.613Z,-2.74
2019-01-24T05:06:04.382Z,-2.76
2019-01-24T05:08:35.146Z,-2.81
2019-01-24T05:11:05.923Z,-2.78
2019-01-24T05:13:36.685Z,-2.81
2019-01-24T05:16:07.469Z,-2.85
2019-01-24T05:18:38.240Z,-2.82
2019-01-24T05:21:09.270Z,-2.75
2019-01-24T05:23:40.032Z,-2.76
2019-01-24T05:26:10.796Z,-2.82
2019-01-24T05:28:41.598Z,-2.79
2019-01-24T05:31:12.348Z,-2.80
2019-01-24T05:33:43.104Z,-2.78
2019-01-24T05:36:13.872Z,-2.85
2019-01-24T05:38:44.651Z,-2.87
2019-01-24T05:41:15.440Z,-2.93
2019-01-24T05:43:46.203Z,-3.03
2019-01-24T05:46:16.989Z,-2.97
2019-01-24T05:48:47.763Z,-2.98
2019-01-24T05:51:18.532Z,-2.95
2019-01-24T05:53:49.294Z,-2.99
2019-01-24T05:56:20.062Z,-3.00
2019-01-24T05:58:50.815Z,-2.90
2019-01-24T06:01:22.194Z,-2.87
2019-01-24T06:03:53.009Z,-2.85
2019-01-24T06:06:23.777Z,-2.88
2019-01-24T06:08:54.540Z,-2.94
2019-01-24T06:11:25.308Z,-2.84
2019-01-24T06:13:56.063Z,-2.92
2019-01-24T06:16:26.830Z,-2.81
2019-01-24T06:18:57.587Z,-2.82
2019-01-24T06:21:28.355Z,-2.90
2019-01-24T06:23:59.117Z,-2.88
2019-01-24T06:26:29.903Z,-3.29
2019-01-24T06:29:02.932Z,-2.84
2019-01-24T06:31:33.342Z,-2.86
2019-01-24T06:34:04.482Z,-2.90
2019-01-24T06:36:35.185Z,-2.90
2019-01-24T06:39:06.640Z,-2.97
2019-01-24T06:41:37.409Z,-2.99
2019-01-24T06:44:08.162Z,-2.97
2019-01-24T06:46:38.952Z,-2.97
2019-01-24T06:49:09.719Z,-2.96
2019-01-24T06:51:40.486Z,-2.96
2019-01-24T06:54:11.251Z,-2.89
2019-01-24T06:56:42.021Z,-2.88
2019-01-24T06:59:12.813Z,-2.91
2019-01-24T07:01:43.587Z,-2.93
2019-01-24T07:04:14.337Z,-2.85
2019-01-24T07:06:45.129Z,-2.81
2019-01-24T07:09:15.890Z,-2.82
2019-01-24T07:11:46.659Z,-2.81
2019-01-24T07:14:17.415Z,-2.89
2019-01-24T07:16:48.190Z,-2.93
2019-01-24T07:19:18.940Z,-2.88
2019-01-24T07:21:49.744Z,-2.99
2019-01-24T07:24:21.480Z,-2.91
2019-01-24T07:26:52.418Z,-2.98
2019-01-24T07:29:23.189Z,-2.88
2019-01-24T07:31:53.964Z,-2.88
2019-01-24T07:34:24.730Z,-2.81
2019-01-24T07:36:55.493Z,-2.89
2019-01-24T07:39:26.245Z,-2.90
2019-01-24T07:41:57.016Z,-2.93
2019-01-24T07:44:27.772Z,-2.82
2019-01-24T07:46:58.553Z,-2.92
2019-01-24T07:49:29.313Z,-2.88
2019-01-24T07:52:00.077Z,-2.98
2019-01-24T07:54:30.839Z,-2.93
2019-01-24T07:57:01.607Z,-2.86
2019-01-24T07:59:32.370Z,-2.86
2019-01-24T08:02:03.349Z,-2.87
2019-01-24T08:04:34.110Z,-2.93
2019-01-24T08:07:04.880Z,-2.95
2019-01-24T08:09:35.670Z,-2.92
2019-01-24T08:12:06.430Z,-2.94
2019-01-24T08:14:37.209Z,-2.86
2019-01-24T08:17:08.008Z,-2.79
2019-01-24T08:19:38.859Z,-2.70
2019-01-24T08:22:09.620Z,-2.70
2019-01-24T08:24:40.424Z,-2.69
2019-01-24T08:27:11.189Z,-2.68
2019-01-24T08:29:41.993Z,-2.52
2019-01-24T08:32:12.759Z,-2.63
2019-01-24T08:34:43.559Z,-2.56
2019-01-24T08:37:14.331Z,-2.26
2019-01-24T08:39:45.092Z,-2.39
2019-01-24T08:42:15.858Z,-2.22
2019-01-24T08:44:46.698Z,-2.04
2019-01-24T08:47:17.472Z,-1.84
2019-01-24T08:49:48.240Z,-1.89
2019-01-24T08:52:20.323Z,-1.83
2019-01-24T08:54:51.277Z,-1.74
2019-01-24T08:57:22.112Z,-1.67
2019-01-24T08:59:52.885Z,-1.77
2019-01-24T09:02:23.648Z,-1.83
2019-01-24T09:04:54.520Z,-1.99
2019-01-24T09:07:25.350Z,-2.02
2019-01-24T09:09:56.123Z,-2.00
2019-01-24T09:12:30.444Z,-2.07
2019-01-24T09:14:59.557Z,-2.16
2019-01-24T09:17:30.316Z,-1.96
2019-01-24T09:20:01.281Z,-1.98
2019-01-24T09:22:32.127Z,-1.96
2019-01-24T09:25:05.578Z,-2.14
2019-01-24T09:27:36.343Z,-2.06
2019-01-24T09:30:13.993Z,-2.01
2019-01-24T09:32:44.788Z,-2.26
2019-01-24T09:35:15.940Z,-1.90
2019-01-24T09:37:46.693Z,-1.91
2019-01-24T09:40:21.329Z,-1.68
2019-01-24T09:42:52.093Z,-1.72
2019-01-24T09:45:25.777Z,-1.63
2019-01-24T09:47:57.552Z,-1.49
2019-01-24T09:50:28.322Z,-1.32
2019-01-24T09:52:59.073Z,-1.59
2019-01-24T09:55:30.092Z,-1.68
2019-01-24T09:58:01.164Z,-1.43
2019-01-24T10:00:33.139Z,-1.34
2019-01-24T10:03:04.109Z,-1.47
2019-01-24T10:05:34.989Z,-1.35
2019-01-24T10:08:06.070Z,-1.05
2019-01-24T10:10:36.940Z,-1.26
2019-01-24T10:13:07.719Z,-1.38
2019-01-24T10:15:38.493Z,-1.29
2019-01-24T10:18:09.251Z,-1.47
2019-01-24T10:20:40.017Z,-1.32
2019-01-24T10:23:10.776Z,-1.31
2019-01-24T10:25:41.571Z,-1.46
2019-01-24T10:28:12.341Z,-1.40
2019-01-24T10:30:43.409Z,-1.07
2019-01-24T10:33:14.289Z,-1.18
2019-01-24T10:35:45.057Z,-1.20
2019-01-24T10:38:15.815Z,-1.25
2019-01-24T10:40:46.575Z,-1.24
2019-01-24T10:43:17.326Z,-1.21
2019-01-24T10:45:48.107Z,-1.04
2019-01-24T10:48:18.865Z,-1.00
2019-01-24T10:50:49.690Z,-0.82
2019-01-24T10:53:20.494Z,-0.89
2019-01-24T10:55:51.341Z,-1.28
2019-01-24T10:58:22.102Z,-1.17
2019-01-24T11:00:53.070Z,-1.00
2019-01-24T11:03:23.836Z,-1.23
2019-01-24T11:05:54.610Z,-1.16
2019-01-24T11:08:25.383Z,-0.89
2019-01-24T11:10:56.149Z,-1.22
2019-01-24T11:13:27.009Z,-0.94
2019-01-24T11:15:57.790Z,-0.86
2019-01-24T11:18:28.554Z,-0.94
2019-01-24T11:20:59.319Z,-1.13
2019-01-24T11:23:30.103Z,-1.27
2019-01-24T11:26:00.890Z,-1.20
2019-01-24T11:28:31.674Z,-1.17
2019-01-24T11:31:02.840Z,-1.41
2019-01-24T11:33:33.604Z,-1.44
2019-01-24T11:36:04.372Z,-1.51
2019-01-24T11:38:35.129Z,-1.44
2019-01-24T11:41:05.928Z,-1.28
2019-01-24T11:43:36.694Z,-1.37
2019-01-24T11:46:07.492Z,-1.41
2019-01-24T11:48:38.265Z,-1.05
2019-01-24T11:51:09.044Z,-0.66
2019-01-24T11:53:39.799Z,-0.54
2019-01-24T11:56:10.563Z,-0.68
2019-01-24T11:58:41.358Z,-0.74
2019-01-24T12:01:12.098Z,-0.51
2019-01-24T12:03:42.972Z,-0.26
2019-01-24T12:06:13.722Z,-0.13
2019-01-24T12:08:44.492Z,-0.05
2019-01-24T12:11:15.243Z,0.10
2019-01-24T12:13:46.002Z,0.38
2019-01-24T12:16:16.768Z,0.40
2019-01-24T12:18:47.536Z,0.21
2019-01-24T12:21:18.312Z,0.17
2019-01-24T12:23:49.097Z,0.02
2019-01-24T12:26:19.859Z,-0.08
2019-01-24T12:28:50.631Z,-0.07
2019-01-24T12:31:21.401Z,-0.01
2019-01-24T12:33:52.177Z,0.15
2019-01-24T12:36:22.953Z,0.44
2019-01-24T12:38:53.824Z,0.31
2019-01-24T12:41:24.599Z,0.14
2019-01-24T12:43:55.487Z,0.26
2019-01-24T12:46:26.268Z,0.14
2019-01-24T12:48:57.046Z,0.12
2019-01-24T12:51:27.803Z,-0.22
2019-01-24T12:53:58.578Z,-0.33
2019-01-24T12:56:29.339Z,-0.01
2019-01-24T12:59:00.102Z,-0.03
2019-01-24T13:01:30.875Z,0.06
2019-01-24T13:04:01.656Z,-0.01
2019-01-24T13:06:32.406Z,0.05
2019-01-24T13:09:05.379Z,0.47
2019-01-24T13:11:36.137Z,0.75
2019-01-24T13:14:06.909Z,0.60
2019-01-24T13:16:37.682Z,-0.02
2019-01-24T13:19:08.456Z,0.21
2019-01-24T13:21:39.249Z,0.16
2019-01-24T13:24:10.013Z,0.25
2019-01-24T13:26:40.777Z,0.31
2019-01-24T13:29:11.556Z,0.48
2019-01-24T13:31:42.323Z,0.62
2019-01-24T13:34:13.256Z,0.83
2019-01-24T13:36:44.167Z,0.50
2019-01-24T13:39:15.270Z,0.58
2019-01-24T13:41:46.243Z,0.25
2019-01-24T13:44:17.286Z,0.48
2019-01-24T13:46:48.251Z,0.66
2019-01-24T13:49:20.385Z,0.72
2019-01-24T13:51:51.352Z,0.47
2019-01-24T13:54:22.678Z,0.52
2019-01-24T13:56:53.763Z,0.41
2019-01-24T13:59:24.710Z,0.56
2019-01-24T14:01:55.658Z,0.43
2019-01-24T14:04:26.571Z,-0.38
2019-01-24T14:06:57.616Z,-0.35
2019-01-24T14:09:28.683Z,-0.44
2019-01-24T14:11:59.767Z,-0.54
2019-01-24T14:14:30.818Z,-0.29
2019-01-24T14:17:01.975Z,-0.59
2019-01-24T14:19:32.891Z,-0.30
2019-01-24T14:22:04.155Z,-0.18
2019-01-24T14:24:35.240Z,-0.38
2019-01-24T14:27:06.422Z,-0.40
2019-01-24T14:29:37.706Z,-0.68
2019-01-24T14:32:08.990Z,-0.56
2019-01-24T14:34:40.077Z,-0.44
2019-01-24T14:37:11.253Z,-0.62
2019-01-24T14:39:42.350Z,-0.74
2019-01-24T14:42:13.278Z,-0.55
2019-01-24T14:44:44.359Z,-0.62
2019-01-24T14:47:15.285Z,-0.43
2019-01-24T14:49:46.369Z,-0.54
2019-01-24T14:52:17.456Z,-0.88
2019-01-24T14:54:48.786Z,-0.91
2019-01-24T14:57:20.323Z,-0.78
2019-01-24T14:59:51.633Z,-0.85
2019-01-24T15:02:22.823Z,-0.82
2019-01-24T15:04:53.819Z,-0.80
2019-01-24T15:07:25.050Z,-0.93
2019-01-24T15:09:56.089Z,-1.43
2019-01-24T15:12:27.202Z,-1.35
2019-01-24T15:14:58.201Z,-1.28
2019-01-24T15:17:29.779Z,-1.17
2019-01-24T15:20:01.072Z,-1.24
2019-01-24T15:22:32.303Z,-1.37
2019-01-24T15:25:06.753Z,-1.49
2019-01-24T15:27:37.773Z,-1.37
2019-01-24T15:30:12.782Z,-1.42
2019-01-24T15:32:44.216Z,-1.54
2019-01-24T15:35:16.004Z,-1.45
2019-01-24T15:37:54.043Z,-1.46
2019-01-24T15:40:33.702Z,-1.40
2019-01-24T15:43:05.381Z,-1.47
2019-01-24T15:45:36.750Z,-1.57
2019-01-24T15:48:08.071Z,-1.65
2019-01-24T15:50:39.447Z,-1.71
2019-01-24T15:53:10.886Z,-1.77
2019-01-24T15:55:42.545Z,-1.75
2019-01-24T15:58:13.894Z,-1.73
2019-01-24T16:00:45.749Z,-1.81
2019-01-24T16:03:17.390Z,-1.84
2019-01-24T16:05:48.859Z,-1.86
2019-01-24T16:08:20.409Z,-1.90
2019-01-24T16:10:51.969Z,-1.91
2019-01-24T16:13:23.509Z,-1.89
2019-01-24T16:15:55.300Z,-1.91
2019-01-24T16:18:26.475Z,-1.86
2019-01-24T16:20:57.975Z,-1.93
2019-01-24T16:23:29.529Z,-1.89
2019-01-24T16:26:01.085Z,-1.87
2019-01-24T16:28:32.427Z,-1.96
2019-01-24T16:31:04.493Z,-1.96
2019-01-24T16:33:36.008Z,-1.92
2019-01-24T16:36:07.659Z,-1.93
2019-01-24T16:38:39.450Z,-1.92
2019-01-24T16:41:11.227Z,-1.93
2019-01-24T16:43:42.872Z,-1.93
2019-01-24T16:46:14.600Z,-1.93
2019-01-24T16:48:45.928Z,-1.80
2019-01-24T16:51:17.728Z,-1.75
2019-01-24T16:53:49.284Z,-1.90
2019-01-24T16:56:20.773Z,-1.92
2019-01-24T16:58:52.509Z,-1.95
2019-01-24T17:01:24.260Z,-1.98
2019-01-24T17:03:55.730Z,-1.97
2019-01-24T17:06:27.465Z,-1.95
2019-01-24T17:08:58.915Z,-2.04
2019-01-24T17:11:30.575Z,-1.91
2019-01-24T17:14:04.099Z,-1.89
2019-01-24T17:16:35.895Z,-1.96
2019-01-24T17:19:08.673Z,-1.95
2019-01-24T17:21:40.488Z,-2.01
2019-01-24T17:24:12.225Z,-2.04
2019-01-24T17:26:43.906Z,-2.07
2019-01-24T17:29:15.746Z,-2.20
2019-01-24T17:31:47.518Z,-2.33
2019-01-24T17:34:19.457Z,-2.23
2019-01-24T17:36:51.142Z,-2.27
2019-01-24T17:39:22.525Z,-2.24
2019-01-24T17:41:54.251Z,-2.21
2019-01-24T17:44:25.885Z,-2.09
2019-01-24T17:46:57.438Z,-2.02
2019-01-24T17:49:29.088Z,-2.10
2019-01-24T17:52:00.797Z,-2.08
2019-01-24T17:54:32.500Z,-2.08
2019-01-24T17:57:04.418Z,-1.98
2019-01-24T17:59:36.118Z,-2.01
2019-01-24T18:02:08.511Z,-1.98
2019-01-24T18:04:40.097Z,-1.93
2019-01-24T18:07:11.923Z,-2.03
2019-01-24T18:09:43.390Z,-2.00
2019-01-24T18:12:15.330Z,-1.94
2019-01-24T18:14:46.975Z,-1.90
2019-01-24T18:17:18.777Z,-1.98
2019-01-24T18:19:50.770Z,-1.84
2019-01-24T18:22:22.750Z,-1.93
2019-01-24T18:24:54.553Z,-2.03
2019-01-24T18:27:26.174Z,-2.00
2019-01-24T18:29:58.031Z,-2.10
2019-01-24T18:32:29.797Z,-2.08
2019-01-24T18:35:01.552Z,-1.98
2019-01-24T18:37:33.554Z,-2.08
2019-01-24T18:40:09.174Z,-2.06
2019-01-24T18:42:41.132Z,-2.02
2019-01-24T18:45:16.259Z,-2.01
2019-01-24T18:47:48.444Z,-2.00
2019-01-24T18:50:21.313Z,-2.00
2019-01-24T18:52:53.113Z,-1.99
2019-01-24T18:55:25.035Z,-1.95
2019-01-24T18:57:57.317Z,-1.91
2019-01-24T19:00:30.273Z,-1.98
2019-01-24T19:03:02.322Z,-2.01
2019-01-24T19:05:34.215Z,-2.01
2019-01-24T19:08:06.515Z,-2.03
2019-01-24T19:10:38.305Z,-2.00
2019-01-24T19:13:10.320Z,-1.95
2019-01-24T19:15:42.373Z,-1.88
2019-01-24T19:18:14.637Z,-1.95
2019-01-24T19:20:46.279Z,-1.96
2019-01-24T19:23:18.274Z,-2.02
2019-01-24T19:25:50.154Z,-2.00
2019-01-24T19:28:22.092Z,-2.00
2019-01-24T19:30:54.247Z,-1.93
2019-01-24T19:33:26.141Z,-1.85
2019-01-24T19:36:00.410Z,-1.86
2019-01-24T19:38:31.788Z,-1.99
2019-01-24T19:41:03.839Z,-1.91
2019-01-24T19:43:35.860Z,-1.89
2019-01-24T19:46:07.785Z,-1.81
2019-01-24T19:48:39.554Z,-1.84
2019-01-24T19:51:11.695Z,-1.85
2019-01-24T19:53:43.699Z,-1.88
2019-01-24T19:56:15.519Z,-1.90
2019-01-24T19:58:47.399Z,-1.94
2019-01-24T20:01:19.337Z,-1.97
2019-01-24T20:03:51.728Z,-1.92
2019-01-24T20:06:23.599Z,-1.94
2019-01-24T20:09:00.178Z,-1.99
2019-01-24T20:11:29.428Z,-1.90
2019-01-24T20:14:01.333Z,-1.95
2019-01-24T20:16:33.270Z,-1.92
2019-01-24T20:19:05.292Z,-1.96
2019-01-24T20:21:37.099Z,-2.01
2019-01-24T20:24:09.179Z,-2.00
2019-01-24T20:26:41.125Z,-1.93
2019-01-24T20:29:13.111Z,-2.00
2019-01-24T20:31:44.944Z,-2.02
2019-01-24T20:34:17.139Z,-1.93
2019-01-24T20:36:48.873Z,-1.94
2019-01-24T20:39:20.592Z,-1.98
2019-01-24T20:41:52.287Z,-2.06
2019-01-24T20:44:23.856Z,-2.06
2019-01-24T20:46:55.538Z,-2.02
2019-01-24T20:49:27.193Z,-2.06
2019-01-24T20:51:58.807Z,-2.10
2019-01-24T20:54:30.481Z,-2.02
2019-01-24T20:57:02.315Z,-2.06
2019-01-24T20:59:34.045Z,-2.09
2019-01-24T21:02:06.043Z,-2.21
2019-01-24T21:04:37.630Z,-2.12
2019-01-24T21:07:09.463Z,-2.15
2019-01-24T21:09:41.145Z,-2.14
2019-01-24T21:12:12.669Z,-2.20
2019-01-24T21:14:44.490Z,-2.12
2019-01-24T21:17:16.186Z,-2.10
2019-01-24T21:19:47.651Z,-2.12
2019-01-24T21:22:19.294Z,-2.19
2019-01-24T21:24:50.980Z,-2.24
2019-01-24T21:27:22.603Z,-2.19
2019-01-24T21:29:54.285Z,-2.34
2019-01-24T21:32:26.412Z,-2.35
2019-01-24T21:34:58.039Z,-2.25
2019-01-24T21:37:29.573Z,-2.22
2019-01-24T21:40:00.958Z,-2.17
2019-01-24T21:42:33.392Z,-2.35
2019-01-24T21:45:08.307Z,-2.31
2019-01-24T21:47:39.742Z,-2.32
2019-01-24T21:50:14.589Z,-2.32
2019-01-24T21:52:46.435Z,-2.32
2019-01-24T21:55:18.223Z,-2.31
2019-01-24T21:57:49.943Z,-2.37
2019-01-24T22:00:23.357Z,-2.32
2019-01-24T22:02:54.751Z,-2.36
2019-01-24T22:05:25.863Z,-2.42
2019-01-24T22:07:57.207Z,-2.43
2019-01-24T22:10:29.362Z,-2.37
2019-01-24T22:13:00.540Z,-2.41
2019-01-24T22:15:31.644Z,-2.34
2019-01-24T22:18:03.067Z,-2.39
2019-01-24T22:20:33.901Z,-2.69
2019-01-24T22:23:04.768Z,-2.50
2019-01-24T22:25:35.571Z,-2.52
2019-01-24T22:28:06.357Z,-2.51
2019-01-24T22:30:41.272Z,-2.58
2019-01-24T22:33:12.020Z,-2.59
2019-01-24T22:35:42.798Z,-2.62
2019-01-24T22:38:13.550Z,-2.59
2019-01-24T22:40:44.344Z,-2.54
2019-01-24T22:43:15.134Z,-2.37
2019-01-24T22:45:45.885Z,-2.42
2019-01-24T22:48:16.666Z,-2.38
2019-01-24T22:50:47.443Z,-2.43
2019-01-24T22:53:18.208Z,-2.41
2019-01-24T22:55:48.969Z,-2.36
2019-01-24T22:58:19.758Z,-2.35
2019-01-24T23:00:54.633Z,-2.37
2019-01-24T23:03:29.109Z,-2.33
2019-01-24T23:05:59.867Z,-2.47
2019-01-24T23:08:30.650Z,-2.46
2019-01-24T23:11:01.421Z,-2.57
2019-01-24T23:13:32.218Z,-2.63
2019-01-24T23:16:03.576Z,-2.56
2019-01-24T23:18:34.459Z,-2.65
2019-01-24T23:21:05.237Z,-2.73
2019-01-24T23:23:36.015Z,-2.75
2019-01-24T23:26:06.768Z,-2.84
2019-01-24T23:28:37.550Z,-2.94
2019-01-24T23:31:08.310Z,-2.98
2019-01-24T23:33:39.081Z,-3.03
2019-01-24T23:36:09.934Z,-2.93
2019-01-24T23:38:40.706Z,-3.02
2019-01-24T23:41:11.475Z,-3.00
2019-01-24T23:43:42.285Z,-2.95
2019-01-24T23:46:13.101Z,-3.11
2019-01-24T23:48:43.870Z,-3.07
2019-01-24T23:51:14.662Z,-3.17
2019-01-24T23:53:45.428Z,-3.19
2019-01-24T23:56:16.184Z,-3.14
2019-01-24T23:58:46.956Z,-3.18
